createdAt,value
2023-04-09T00:02:10.595Z,13.65
2023-04-09T00:04:39.102Z,13.62
2023-04-09T00:07:07.593Z,13.62
2023-04-09T00:09:36.088Z,13.62
2023-04-09T00:12:04.626Z,13.59
2023-04-09T00:14:33.574Z,13.57
2023-04-09T00:17:01.680Z,13.53
2023-04-09T00:19:29.843Z,13.54
2023-04-09T00:21:58.250Z,13.53
2023-04-09T00:24:26.451Z,13.52
2023-04-09T00:26:54.778Z,13.50
2023-04-09T00:29:23.186Z,13.48
2023-04-09T00:31:51.545Z,13.48
2023-04-09T00:34:19.815Z,13.48
2023-04-09T00:36:48.304Z,13.47
2023-04-09T00:39:16.649Z,13.47
2023-04-09T00:41:46.102Z,13.45
2023-04-09T00:44:14.138Z,13.40
2023-04-09T00:46:44.250Z,13.39
2023-04-09T00:49:12.373Z,13.38
2023-04-09T00:51:41.191Z,13.46
2023-04-09T00:54:09.628Z,13.47
2023-04-09T00:56:37.780Z,13.46
2023-04-09T00:59:05.937Z,13.46
2023-04-09T01:01:34.666Z,13.47
2023-04-09T01:04:03.181Z,13.46
2023-04-09T01:06:39.236Z,13.43
2023-04-09T01:09:07.498Z,13.40
2023-04-09T01:11:36.643Z,13.41
2023-04-09T01:14:04.895Z,13.38
2023-04-09T01:16:35.377Z,13.31
2023-04-09T01:19:07.321Z,13.20
2023-04-09T01:21:35.572Z,13.19
2023-04-09T01:24:03.863Z,13.19
2023-04-09T01:27:03.332Z,13.21
2023-04-09T01:29:45.596Z,13.21
2023-04-09T01:32:14.136Z,13.21
2023-04-09T01:34:46.686Z,13.22
2023-04-09T01:37:15.579Z,13.21
2023-04-09T01:39:43.747Z,13.19
2023-04-09T01:42:12.435Z,13.15
2023-04-09T01:44:40.922Z,13.16
2023-04-09T01:47:09.342Z,13.20
2023-04-09T01:49:37.854Z,13.21
2023-04-09T01:52:06.377Z,13.20
2023-04-09T01:54:34.547Z,13.20
2023-04-09T01:57:02.604Z,13.19
2023-04-09T01:59:34.877Z,13.19
2023-04-09T02:02:06.954Z,13.16
2023-04-09T02:04:39.599Z,13.10
2023-04-09T02:07:07.662Z,13.03
2023-04-09T02:09:37.546Z,13.00
2023-04-09T02:12:06.366Z,12.99
2023-04-09T02:14:34.845Z,12.96
2023-04-09T02:17:03.418Z,12.98
2023-04-09T02:19:41.461Z,12.98
2023-04-09T02:22:16.628Z,12.99
2023-04-09T02:24:46.178Z,13.01
2023-04-09T02:27:14.415Z,12.98
2023-04-09T02:29:43.356Z,12.96
2023-04-09T02:32:11.488Z,12.96
2023-04-09T02:34:43.981Z,12.93
2023-04-09T02:37:12.434Z,12.90
2023-04-09T02:39:40.640Z,12.90
2023-04-09T02:42:09.630Z,12.88
2023-04-09T02:44:37.893Z,12.84
2023-04-09T02:47:09.523Z,12.86
2023-04-09T02:49:39.324Z,12.92
2023-04-09T02:52:07.540Z,12.96
2023-04-09T02:54:35.904Z,12.98
2023-04-09T02:57:04.610Z,13.01
2023-04-09T02:59:34.408Z,13.00
2023-04-09T03:02:02.741Z,12.92
2023-04-09T03:04:30.972Z,12.88
2023-04-09T03:06:59.412Z,12.89
2023-04-09T03:09:27.480Z,12.87
2023-04-09T03:11:57.436Z,12.83
2023-04-09T03:14:25.724Z,12.78
2023-04-09T03:16:54.076Z,12.74
2023-04-09T03:19:22.114Z,12.76
2023-04-09T03:21:51.463Z,12.80
2023-04-09T03:24:21.784Z,12.81
2023-04-09T03:26:50.346Z,12.82
2023-04-09T03:29:19.987Z,12.80
2023-04-09T03:31:48.339Z,12.79
2023-04-09T03:34:16.473Z,12.80
2023-04-09T03:36:46.089Z,12.78
2023-04-09T03:39:23.621Z,12.76
2023-04-09T03:41:53.270Z,12.76
2023-04-09T03:44:21.778Z,12.81
2023-04-09T03:47:02.204Z,12.87
2023-04-09T03:49:30.764Z,12.87
2023-04-09T03:52:04.665Z,12.83
2023-04-09T03:54:39.172Z,12.86
2023-04-09T03:57:12.243Z,12.89
2023-04-09T03:59:46.448Z,12.91
2023-04-09T04:02:16.517Z,12.92
2023-04-09T04:04:47.831Z,12.93
2023-04-09T04:07:17.377Z,12.93
2023-04-09T04:09:53.320Z,12.94
2023-04-09T04:12:26.634Z,12.95
2023-04-09T04:15:12.164Z,12.97
2023-04-09T04:17:53.648Z,12.96
2023-04-09T04:20:34.797Z,12.95
2023-04-09T04:23:23.894Z,12.95
2023-04-09T04:26:07.223Z,12.94
2023-04-09T04:28:37.105Z,12.95
2023-04-09T04:31:11.509Z,12.95
2023-04-09T04:33:40.707Z,12.97
2023-04-09T04:36:12.792Z,12.99
2023-04-09T04:38:46.601Z,13.02
2023-04-09T04:41:45.705Z,13.04
2023-04-09T04:44:17.089Z,13.07
2023-04-09T04:46:47.170Z,13.10
2023-04-09T04:49:15.526Z,13.13
2023-04-09T04:51:49.369Z,13.16
2023-04-09T04:54:17.593Z,13.18
2023-04-09T04:56:54.454Z,13.23
2023-04-09T04:59:51.597Z,13.27
2023-04-09T05:02:20.691Z,13.29
2023-04-09T05:05:01.721Z,13.30
2023-04-09T05:07:37.627Z,13.32
2023-04-09T05:10:06.828Z,13.35
2023-04-09T05:12:43.752Z,13.38
2023-04-09T05:15:13.152Z,13.39
2023-04-09T05:17:43.860Z,13.38
2023-04-09T05:20:12.376Z,13.39
2023-04-09T05:22:49.460Z,13.43
2023-04-09T05:25:17.964Z,13.43
2023-04-09T05:27:48.140Z,13.44
2023-04-09T05:30:16.610Z,13.42
2023-04-09T05:32:45.027Z,13.42
2023-04-09T05:35:13.802Z,13.44
2023-04-09T05:37:44.168Z,13.45
2023-04-09T05:40:12.850Z,13.44
2023-04-09T05:42:41.807Z,13.50
2023-04-09T05:45:18.366Z,13.53
2023-04-09T05:47:51.841Z,13.54
2023-04-09T05:50:22.888Z,13.56
2023-04-09T05:53:00.819Z,13.60
2023-04-09T05:55:37.638Z,13.63
2023-04-09T05:58:05.765Z,13.61
2023-04-09T06:00:34.673Z,13.61
2023-04-09T06:03:04.596Z,13.63
2023-04-09T06:05:32.758Z,13.63
2023-04-09T06:08:02.018Z,13.67
2023-04-09T06:10:32.414Z,13.69
2023-04-09T06:13:00.932Z,13.75
2023-04-09T06:15:37.578Z,13.79
2023-04-09T06:18:06.990Z,13.86
2023-04-09T06:20:35.727Z,13.92
2023-04-09T06:23:06.372Z,13.97
2023-04-09T06:25:35.770Z,14.00
2023-04-09T06:28:04.431Z,13.99
2023-04-09T06:30:37.565Z,14.01
2023-04-09T06:33:06.243Z,14.02
2023-04-09T06:35:34.427Z,14.00
2023-04-09T06:38:04.797Z,14.08
2023-04-09T06:40:33.353Z,14.14
2023-04-09T06:43:01.656Z,14.20
2023-04-09T06:45:32.766Z,14.30
2023-04-09T06:48:01.046Z,14.39
2023-04-09T06:50:31.413Z,14.45
2023-04-09T06:52:59.625Z,14.50
2023-04-09T06:55:27.995Z,14.56
2023-04-09T06:57:57.098Z,14.60
2023-04-09T07:00:25.157Z,14.66
2023-04-09T07:03:13.167Z,14.77
2023-04-09T07:05:45.149Z,14.86
2023-04-09T07:08:13.204Z,14.93
2023-04-09T07:10:42.318Z,15.05
2023-04-09T07:13:12.705Z,15.15
2023-04-09T07:15:42.525Z,15.24
2023-04-09T07:18:11.762Z,15.36
2023-04-09T07:20:39.925Z,15.47
2023-04-09T07:23:08.092Z,15.59
2023-04-09T07:25:36.606Z,15.66
2023-04-09T07:28:04.728Z,15.68
2023-04-09T07:30:33.106Z,15.72
2023-04-09T07:33:01.628Z,15.81
2023-04-09T07:35:29.785Z,15.91
2023-04-09T07:37:59.142Z,16.03
2023-04-09T07:40:27.318Z,16.18
2023-04-09T07:42:56.183Z,16.31
2023-04-09T07:45:24.259Z,16.44
2023-04-09T07:47:55.658Z,16.55
2023-04-09T07:50:24.049Z,16.64
2023-04-09T07:52:52.195Z,16.75
2023-04-09T07:55:20.786Z,16.83
2023-04-09T07:57:51.777Z,16.88
2023-04-09T08:00:23.364Z,16.92
2023-04-09T08:02:57.786Z,16.93
2023-04-09T08:05:26.557Z,16.95
2023-04-09T08:07:57.436Z,16.99
2023-04-09T08:10:25.521Z,17.09
2023-04-09T08:12:53.703Z,17.18
2023-04-09T08:15:29.370Z,17.19
2023-04-09T08:17:58.368Z,17.20
2023-04-09T08:20:26.614Z,17.20
2023-04-09T08:22:55.799Z,17.25
2023-04-09T08:25:24.069Z,17.30
2023-04-09T08:27:52.410Z,17.38
2023-04-09T08:30:21.307Z,17.52
2023-04-09T08:32:50.228Z,17.66
2023-04-09T08:35:18.586Z,17.73
2023-04-09T08:37:47.957Z,17.74
2023-04-09T08:40:16.549Z,17.73
2023-04-09T08:42:46.227Z,17.74
2023-04-09T08:45:14.386Z,17.76
2023-04-09T08:47:42.756Z,17.81
2023-04-09T08:50:10.934Z,17.90
2023-04-09T08:52:39.993Z,18.02
2023-04-09T08:55:08.610Z,18.15
2023-04-09T08:57:40.186Z,18.28
2023-04-09T09:00:10.481Z,18.40
2023-04-09T09:02:40.135Z,18.49
2023-04-09T09:05:08.620Z,18.52
2023-04-09T09:07:53.143Z,18.52
2023-04-09T09:10:21.809Z,18.48
2023-04-09T09:12:49.931Z,18.45
2023-04-09T09:15:27.732Z,18.42
2023-04-09T09:17:59.244Z,18.44
2023-04-09T09:20:27.824Z,18.40
2023-04-09T09:22:57.172Z,18.44
2023-04-09T09:25:26.404Z,18.52
2023-04-09T09:27:55.135Z,18.60
2023-04-09T09:30:24.243Z,18.65
2023-04-09T09:32:53.479Z,18.70
2023-04-09T09:35:22.498Z,18.74
2023-04-09T09:38:01.054Z,18.87
2023-04-09T09:40:30.064Z,18.93
2023-04-09T09:42:59.303Z,18.94
2023-04-09T09:45:27.735Z,18.93
2023-04-09T09:47:57.162Z,18.96
2023-04-09T09:50:25.787Z,19.01
2023-04-09T09:52:55.095Z,19.04
2023-04-09T09:55:23.172Z,19.07
2023-04-09T09:57:51.715Z,19.11
2023-04-09T10:00:25.475Z,19.15
2023-04-09T10:02:59.655Z,19.21
2023-04-09T10:05:27.931Z,19.25
2023-04-09T10:07:58.299Z,19.30
2023-04-09T10:10:26.490Z,19.35
2023-04-09T10:12:54.841Z,19.39
2023-04-09T10:15:24.033Z,19.43
2023-04-09T10:17:54.477Z,19.46
2023-04-09T10:20:56.301Z,19.51
2023-04-09T10:23:36.287Z,19.41
2023-04-09T10:26:04.925Z,19.40
2023-04-09T10:28:33.983Z,19.41
2023-04-09T10:31:06.952Z,19.39
2023-04-09T10:33:55.047Z,19.38
2023-04-09T10:36:28.004Z,19.39
2023-04-09T10:39:11.173Z,19.34
2023-04-09T10:41:39.956Z,19.34
2023-04-09T10:44:24.758Z,19.34
2023-04-09T10:46:55.180Z,19.34
2023-04-09T10:49:24.087Z,19.35
2023-04-09T10:52:11.886Z,19.35
2023-04-09T10:54:46.593Z,19.36
2023-04-09T10:57:19.654Z,19.39
2023-04-09T10:59:52.703Z,19.39
2023-04-09T11:02:24.004Z,19.41
2023-04-09T11:05:04.095Z,19.39
2023-04-09T11:07:33.379Z,19.41
2023-04-09T11:10:02.562Z,19.45
2023-04-09T11:12:36.191Z,19.47
2023-04-09T11:15:04.729Z,19.48
2023-04-09T11:17:37.873Z,19.48
2023-04-09T11:20:10.268Z,19.44
2023-04-09T11:22:39.450Z,19.41
2023-04-09T11:25:08.289Z,19.37
2023-04-09T11:27:38.053Z,19.32
2023-04-09T11:30:14.094Z,19.27
2023-04-09T11:32:52.806Z,19.23
2023-04-09T11:35:22.124Z,19.21
2023-04-09T11:37:55.592Z,19.17
2023-04-09T11:40:29.318Z,19.13
2023-04-09T11:42:59.322Z,19.08
2023-04-09T11:45:29.331Z,19.02
2023-04-09T11:47:58.569Z,18.98
2023-04-09T11:50:29.618Z,18.93
2023-04-09T11:52:58.303Z,18.90
2023-04-09T11:55:31.215Z,18.85
2023-04-09T11:58:01.405Z,18.83
2023-04-09T12:00:29.840Z,18.83
2023-04-09T12:02:59.937Z,18.87
2023-04-09T12:05:51.221Z,18.94
2023-04-09T12:08:23.189Z,19.02
2023-04-09T12:10:58.023Z,19.10
2023-04-09T12:13:34.814Z,19.17
2023-04-09T12:16:10.064Z,19.22
2023-04-09T12:19:07.303Z,19.26
2023-04-09T12:21:58.789Z,19.28
2023-04-09T12:24:28.274Z,19.27
2023-04-09T12:26:57.565Z,19.27
2023-04-09T12:29:26.907Z,19.26
2023-04-09T12:31:56.602Z,19.25
2023-04-09T12:34:27.468Z,19.20
2023-04-09T12:37:02.870Z,19.08
2023-04-09T12:39:32.632Z,19.01
2023-04-09T12:42:04.429Z,18.97
2023-04-09T12:44:37.391Z,18.93
2023-04-09T12:47:05.706Z,18.90
2023-04-09T12:49:41.055Z,18.88
2023-04-09T12:52:11.160Z,18.88
2023-04-09T12:54:43.003Z,18.87
2023-04-09T12:57:13.134Z,18.88
2023-04-09T12:59:45.237Z,18.89
2023-04-09T13:02:14.279Z,18.89
2023-04-09T13:04:43.133Z,18.88
2023-04-09T13:07:13.087Z,18.84
2023-04-09T13:09:43.814Z,18.74
2023-04-09T13:12:13.256Z,18.66
2023-04-09T13:14:46.715Z,18.56
2023-04-09T13:17:15.668Z,18.48
2023-04-09T13:19:44.243Z,18.42
2023-04-09T13:22:12.707Z,18.37
2023-04-09T13:24:43.395Z,18.35
2023-04-09T13:27:13.216Z,18.32
2023-04-09T13:29:45.807Z,18.29
2023-04-09T13:32:14.478Z,18.26
2023-04-09T13:34:51.412Z,18.22
2023-04-09T13:37:20.154Z,18.19
2023-04-09T13:39:49.622Z,18.13
2023-04-09T13:42:19.273Z,18.09
2023-04-09T13:44:47.430Z,18.06
2023-04-09T13:47:16.463Z,18.02
2023-04-09T13:49:44.598Z,17.98
2023-04-09T13:52:12.988Z,17.95
2023-04-09T13:54:42.178Z,17.91
2023-04-09T13:57:10.775Z,17.87
2023-04-09T13:59:38.846Z,17.84
2023-04-09T14:02:09.687Z,17.83
2023-04-09T14:04:39.223Z,17.82
2023-04-09T14:07:08.572Z,17.82
2023-04-09T14:09:39.922Z,17.82
2023-04-09T14:12:08.081Z,17.81
2023-04-09T14:14:38.109Z,17.80
2023-04-09T14:17:07.552Z,17.78
2023-04-09T14:19:36.519Z,17.72
2023-04-09T14:22:15.628Z,17.62
2023-04-09T14:24:43.764Z,17.53
2023-04-09T14:27:12.278Z,17.48
2023-04-09T14:29:46.305Z,17.42
2023-04-09T14:32:23.191Z,17.37
2023-04-09T14:35:02.251Z,17.29
2023-04-09T14:37:32.359Z,17.22
2023-04-09T14:40:12.727Z,17.17
2023-04-09T14:42:43.728Z,17.13
2023-04-09T14:45:12.877Z,17.11
2023-04-09T14:47:45.754Z,17.09
2023-04-09T14:50:25.790Z,17.04
2023-04-09T14:52:56.742Z,17.00
2023-04-09T14:55:44.822Z,16.97
2023-04-09T14:58:19.622Z,17.00
2023-04-09T15:00:53.683Z,17.01
2023-04-09T15:03:23.009Z,17.01
2023-04-09T15:05:51.323Z,17.02
2023-04-09T15:08:26.526Z,17.02
2023-04-09T15:10:59.165Z,17.00
2023-04-09T15:13:34.044Z,16.95
2023-04-09T15:16:06.140Z,17.02
2023-04-09T15:18:37.717Z,17.02
2023-04-09T15:21:07.260Z,17.02
2023-04-09T15:23:35.960Z,17.02
2023-04-09T15:26:09.925Z,17.02
2023-04-09T15:28:39.149Z,17.03
2023-04-09T15:31:07.513Z,17.02
2023-04-09T15:33:55.450Z,17.01
2023-04-09T15:36:30.202Z,17.00
2023-04-09T15:38:58.704Z,16.99
2023-04-09T15:41:27.070Z,16.97
2023-04-09T15:44:12.551Z,16.91
2023-04-09T15:46:56.981Z,16.88
2023-04-09T15:49:27.512Z,16.85
2023-04-09T15:51:58.839Z,16.84
2023-04-09T15:54:27.335Z,16.81
2023-04-09T15:57:05.088Z,16.75
2023-04-09T15:59:33.691Z,16.71
2023-04-09T16:02:03.332Z,16.68
2023-04-09T16:04:32.206Z,16.65
2023-04-09T16:07:05.410Z,16.63
2023-04-09T16:09:51.556Z,16.61
2023-04-09T16:12:19.754Z,16.62
2023-04-09T16:14:50.772Z,16.60
2023-04-09T16:17:19.046Z,16.56
2023-04-09T16:19:50.478Z,16.55
2023-04-09T16:22:20.119Z,16.53
2023-04-09T16:24:48.897Z,16.50
2023-04-09T16:27:22.811Z,16.48
2023-04-09T16:29:57.591Z,16.47
2023-04-09T16:32:31.724Z,16.46
2023-04-09T16:35:04.609Z,16.48
2023-04-09T16:37:36.456Z,16.51
2023-04-09T16:40:04.708Z,16.52
2023-04-09T16:42:36.934Z,16.52
2023-04-09T16:45:11.138Z,16.51
2023-04-09T16:47:59.100Z,16.48
2023-04-09T16:50:27.648Z,16.45
2023-04-09T16:52:56.773Z,16.41
2023-04-09T16:55:25.035Z,16.36
2023-04-09T16:57:56.463Z,16.31
2023-04-09T17:00:26.235Z,16.26
2023-04-09T17:02:58.041Z,16.19
2023-04-09T17:05:26.474Z,16.17
2023-04-09T17:07:54.622Z,16.13
2023-04-09T17:10:22.929Z,16.08
2023-04-09T17:12:51.282Z,16.01
2023-04-09T17:15:21.666Z,15.93
2023-04-09T17:17:53.422Z,15.86
2023-04-09T17:20:26.103Z,15.85
2023-04-09T17:23:00.993Z,15.82
2023-04-09T17:25:31.067Z,15.78
2023-04-09T17:28:01.800Z,15.76
2023-04-09T17:30:35.720Z,15.74
2023-04-09T17:33:23.621Z,15.73
2023-04-09T17:36:02.934Z,15.71
2023-04-09T17:38:36.300Z,15.70
2023-04-09T17:41:07.391Z,15.67
2023-04-09T17:43:40.877Z,15.64
2023-04-09T17:46:11.920Z,15.63
2023-04-09T17:48:46.740Z,15.61
2023-04-09T17:51:18.794Z,15.62
2023-04-09T17:53:47.807Z,15.64
2023-04-09T17:56:16.849Z,15.65
2023-04-09T17:58:45.301Z,15.65
2023-04-09T18:01:13.766Z,15.68
2023-04-09T18:03:42.858Z,15.70
2023-04-09T18:06:24.732Z,15.71
2023-04-09T18:08:53.659Z,15.72
2023-04-09T18:11:23.880Z,15.71
2023-04-09T18:13:53.132Z,15.68
2023-04-09T18:16:23.419Z,15.64
2023-04-09T18:18:52.362Z,15.59
2023-04-09T18:21:24.928Z,15.53
2023-04-09T18:23:53.708Z,15.48
2023-04-09T18:26:29.042Z,15.43
2023-04-09T18:29:02.234Z,15.37
2023-04-09T18:31:35.702Z,15.32
2023-04-09T18:34:04.510Z,15.27
2023-04-09T18:36:35.691Z,15.24
2023-04-09T18:39:11.249Z,15.22
2023-04-09T18:41:39.566Z,15.21
2023-04-09T18:44:09.549Z,15.20
2023-04-09T18:46:38.297Z,15.19
2023-04-09T18:49:07.611Z,15.19
2023-04-09T18:51:36.809Z,15.21
2023-04-09T18:54:07.962Z,15.24
2023-04-09T18:56:36.656Z,15.25
2023-04-09T18:59:04.887Z,15.24
2023-04-09T19:01:33.984Z,15.23
2023-04-09T19:04:02.501Z,15.23
2023-04-09T19:06:33.237Z,15.23
2023-04-09T19:09:01.382Z,15.24
2023-04-09T19:11:32.903Z,15.26
2023-04-09T19:14:02.335Z,15.26
2023-04-09T19:16:30.857Z,15.28
2023-04-09T19:19:06.063Z,15.29
2023-04-09T19:21:36.053Z,15.29
2023-04-09T19:24:06.014Z,15.27
2023-04-09T19:26:35.067Z,15.22
2023-04-09T19:29:05.431Z,15.17
2023-04-09T19:31:38.282Z,15.09
2023-04-09T19:34:06.598Z,15.02
2023-04-09T19:36:34.746Z,14.95
2023-04-09T19:39:03.486Z,14.87
2023-04-09T19:41:31.740Z,14.77
2023-04-09T19:44:01.469Z,14.63
2023-04-09T19:46:30.465Z,14.53
2023-04-09T19:48:58.745Z,14.49
2023-04-09T19:51:31.861Z,14.46
2023-04-09T19:54:00.066Z,14.43
2023-04-09T19:56:30.167Z,14.42
2023-04-09T19:58:58.427Z,14.42
2023-04-09T20:01:26.949Z,14.42
2023-04-09T20:03:55.184Z,14.44
2023-04-09T20:06:24.122Z,14.45
2023-04-09T20:08:53.365Z,14.46
2023-04-09T20:11:22.931Z,14.48
2023-04-09T20:13:52.118Z,14.49
2023-04-09T20:16:24.416Z,14.49
2023-04-09T20:18:52.674Z,14.49
2023-04-09T20:21:21.198Z,14.50
2023-04-09T20:23:49.503Z,14.50
2023-04-09T20:26:17.957Z,14.50
2023-04-09T20:28:47.264Z,14.50
2023-04-09T20:31:15.339Z,14.49
2023-04-09T20:33:43.457Z,14.47
2023-04-09T20:36:18.559Z,14.45
2023-04-09T20:38:46.700Z,14.40
2023-04-09T20:41:14.755Z,14.36
2023-04-09T20:43:42.769Z,14.30
2023-04-09T20:46:15.622Z,14.24
2023-04-09T20:48:43.828Z,14.18
2023-04-09T20:51:11.915Z,14.14
2023-04-09T20:53:40.591Z,14.11
2023-04-09T20:56:09.434Z,14.07
2023-04-09T20:58:41.953Z,14.05
2023-04-09T21:01:11.110Z,14.03
2023-04-09T21:03:40.166Z,14.02
2023-04-09T21:06:09.520Z,14.01
2023-04-09T21:08:42.842Z,14.00
2023-04-09T21:11:11.543Z,14.00
2023-04-09T21:13:53.202Z,13.97
2023-04-09T21:16:24.949Z,13.96
2023-04-09T21:18:53.144Z,13.96
2023-04-09T21:21:30.809Z,13.95
2023-04-09T21:24:01.100Z,13.95
2023-04-09T21:26:35.980Z,13.94
2023-04-09T21:29:17.471Z,13.92
2023-04-09T21:31:45.875Z,13.90
2023-04-09T21:34:13.938Z,13.88
2023-04-09T21:36:45.382Z,13.86
2023-04-09T21:39:13.641Z,13.85
2023-04-09T21:41:42.249Z,13.83
2023-04-09T21:44:10.449Z,13.81
2023-04-09T21:46:40.814Z,13.77
2023-04-09T21:49:09.503Z,13.75
2023-04-09T21:51:38.302Z,13.67
2023-04-09T21:54:09.624Z,13.59
2023-04-09T21:56:39.535Z,13.50
2023-04-09T21:59:09.962Z,13.44
2023-04-09T22:01:38.553Z,13.43
2023-04-09T22:04:06.763Z,13.43
2023-04-09T22:06:40.280Z,13.43
2023-04-09T22:09:08.711Z,13.41
2023-04-09T22:11:41.239Z,13.41
2023-04-09T22:14:12.192Z,13.41
2023-04-09T22:16:40.844Z,13.42
2023-04-09T22:19:09.357Z,13.41
2023-04-09T22:21:41.979Z,13.42
2023-04-09T22:24:10.909Z,13.44
2023-04-09T22:26:40.999Z,13.45
2023-04-09T22:29:10.509Z,13.46
2023-04-09T22:31:38.972Z,13.49
2023-04-09T22:34:20.217Z,13.51
2023-04-09T22:36:49.838Z,13.53
2023-04-09T22:39:17.989Z,13.53
2023-04-09T22:41:46.078Z,13.54
2023-04-09T22:44:14.275Z,13.55
2023-04-09T22:46:43.844Z,13.54
2023-04-09T22:49:12.912Z,13.52
2023-04-09T22:51:41.911Z,13.47
2023-04-09T22:54:10.578Z,13.42
2023-04-09T22:56:39.802Z,13.38
2023-04-09T22:59:08.180Z,13.43
2023-04-09T23:01:37.340Z,13.40
2023-04-09T23:04:06.037Z,13.45
2023-04-09T23:06:34.839Z,13.47
2023-04-09T23:09:03.055Z,13.47
2023-04-09T23:11:31.334Z,13.46
2023-04-09T23:14:02.183Z,13.42
2023-04-09T23:16:31.127Z,13.39
2023-04-09T23:19:01.281Z,13.38
2023-04-09T23:21:29.741Z,13.38
2023-04-09T23:23:57.859Z,13.34
2023-04-09T23:26:26.140Z,13.31
2023-04-09T23:28:54.846Z,13.27
2023-04-09T23:31:26.016Z,13.24
2023-04-09T23:33:55.750Z,13.22
2023-04-09T23:36:24.522Z,13.23
2023-04-09T23:38:57.322Z,13.25
2023-04-09T23:41:26.786Z,13.25
2023-04-09T23:43:55.151Z,13.20
2023-04-09T23:46:24.369Z,13.16
2023-04-09T23:48:52.545Z,13.10
2023-04-09T23:51:20.864Z,13.06
2023-04-09T23:53:49.591Z,13.11
2023-04-09T23:56:17.618Z,13.10
2023-04-09T23:58:47.518Z,13.08
